Time;durP1;ratioP1;P1;durP2;ratioP2;P2;SDS_P1;SDS_P2;PMS_P1;PMS_P2;Temp;Humidity;BMP_temperature;BMP_pressure;BME280_temperature;BME280_humidity;BME280_pressure;Samples;Min_cycle;Max_cycle;Signal;HPM_P1;HPM_P2
2022/04/01 00:00:50;;;;;;;;;;;2.40;98.60;;;;;;6250722;22;19907;-87
2022/04/01 00:03:23;;;;;;;;;;;2.40;98.70;;;;;;6250164;22;20318;-88
2022/04/01 00:05:52;;;;;;;;;;;2.40;98.60;;;;;;6277353;22;19914;-88
2022/04/01 00:08:18;;;;;;;;;;;2.30;98.60;;;;;;6251032;22;19907;-87
2022/04/01 00:10:45;;;;;;;;;;;2.30;98.70;;;;;;6250510;22;19918;-89
2022/04/01 00:13:14;;;;;;;;;;;2.30;98.70;;;;;;6277920;22;20222;-88
2022/04/01 00:15:42;;;;;;;;;;;2.30;98.70;;;;;;6250049;22;19911;-89
2022/04/01 00:18:16;;;;;;;;;;;2.30;98.80;;;;;;6277259;22;20229;-88
2022/04/01 00:20:44;;;;;;;;;;;2.30;98.80;;;;;;6250357;22;19903;-89
2022/04/01 00:23:18;;;;;;;;;;;2.30;98.80;;;;;;6250245;22;19935;-87
2022/04/01 00:25:58;;;;;;;;;;;2.30;98.80;;;;;;6250954;22;19931;-88
2022/04/01 00:28:26;;;;;;;;;;;2.30;98.80;;;;;;6226762;22;19908;-87
2022/04/01 00:31:04;;;;;;;;;;;;;;;;;;;;;
2022/04/01 00:33:31;;;;;;;;;;;2.30;98.80;;;;;;6277553;22;19982;-88
2022/04/01 00:36:00;;;;;;;;;;;2.20;98.70;;;;;;6251432;22;19994;-87
2022/04/01 00:38:28;;;;;;;;;;;2.20;98.80;;;;;;6264307;22;19915;-87
2022/04/01 00:40:53;;;;;;;;;;;2.20;98.70;;;;;;6278708;22;19914;-87
2022/04/01 00:43:34;;;;;;;;;;;2.20;98.80;;;;;;6278374;22;19892;-88
2022/04/01 00:46:04;;;;;;;;;;;2.30;98.80;;;;;;6249686;22;20329;-88
2022/04/01 00:48:39;;;;;;;;;;;2.30;98.70;;;;;;6250974;22;19903;-88
2022/04/01 00:51:09;;;;;;;;;;;2.20;98.70;;;;;;6252121;22;19904;-89
2022/04/01 00:53:48;;;;;;;;;;;2.20;98.70;;;;;;6251787;22;19907;-88
2022/04/01 00:56:32;;;;;;;;;;;2.20;98.70;;;;;;6279118;22;19919;-89
2022/04/01 00:58:57;;;;;;;;;;;2.20;98.80;;;;;;6254900;22;20336;-89
2022/04/01 01:01:42;;;;;;;;;;;2.20;98.90;;;;;;6254998;22;19943;-88
2022/04/01 01:04:09;;;;;;;;;;;2.20;98.90;;;;;;6261443;22;19904;-89
2022/04/01 01:06:55;;;;;;;;;;;2.10;98.90;;;;;;6264048;22;19903;-88
2022/04/01 01:09:29;;;;;;;;;;;2.10;99.00;;;;;;6265129;22;19903;-89
2022/04/01 01:12:11;;;;;;;;;;;2.10;99.00;;;;;;6265266;22;19942;-88
2022/04/01 01:14:40;;;;;;;;;;;2.10;99.10;;;;;;6263676;22;19934;-88
2022/04/01 01:17:10;;;;;;;;;;;2.20;99.10;;;;;;6263433;22;19963;-89
2022/04/01 01:19:48;;;;;;;;;;;2.10;99.10;;;;;;6286313;22;19903;-88
2022/04/01 01:22:14;;;;;;;;;;;2.10;99.00;;;;;;6252542;22;19910;-87
2022/04/01 01:25:03;;;;;;;;;;;2.00;99.10;;;;;;6252548;22;19982;-89
2022/04/01 01:28:01;;;;;;;;;;;2.00;99.30;;;;;;6228865;22;20314;-89
2022/04/01 01:30:32;;;;;;;;;;;2.00;99.40;;;;;;6251963;22;20202;-90
2022/04/01 01:38:45;;;;;;;;;;;2.00;99.50;;;;;;6263812;22;19949;-89
2022/04/01 01:41:38;;;;;;;;;;;1.90;99.50;;;;;;6226074;22;20583;-90
2022/04/01 01:44:31;;;;;;;;;;;1.90;99.60;;;;;;6252801;22;19909;-90
2022/04/01 01:47:18;;;;;;;;;;;;;;;;;;;;;
2022/04/01 01:55:56;;;;;;;;;;;;;;;;;;;;;
2022/04/01 01:58:47;;;;;;;;;;;1.90;99.60;;;;;;6273891;22;19907;-90
2022/04/01 02:01:42;;;;;;;;;;;1.90;99.60;;;;;;6279163;22;19895;-92
2022/04/01 02:10:26;;;;;;;;;;;1.80;99.70;;;;;;6279033;22;20382;-91
2022/04/01 02:13:27;;;;;;;;;;;;;;;;;;;;;
2022/04/01 02:18:39;;;;;;;;;;;;;;;;;;;;;
2022/04/01 02:21:10;;;;;;;;;;;1.70;99.80;;;;;;6254017;22;20010;-89
2022/04/01 02:24:02;;;;;;;;;;;1.80;99.90;;;;;;6251781;22;19995;-90
2022/04/01 02:26:40;;;;;;;;;;;;;;;;;;;;;
2022/04/01 02:29:26;;;;;;;;;;;;;;;;;;;;;
2022/04/01 02:32:25;;;;;;;;;;;1.80;99.90;;;;;;6279223;22;19986;-90
2022/04/01 02:38:16;;;;;;;;;;;1.80;99.90;;;;;;6240477;22;20333;-89
2022/04/01 02:40:59;;;;;;;;;;;1.70;99.90;;;;;;6264729;22;19910;-89
2022/04/01 02:49:27;;;;;;;;;;;1.60;99.90;;;;;;6256465;22;19907;-89
2022/04/01 02:52:06;;;;;;;;;;;;;;;;;;;;;
2022/04/01 02:54:39;;;;;;;;;;;1.60;99.90;;;;;;6254277;22;20003;-90
2022/04/01 02:57:25;;;;;;;;;;;1.70;99.90;;;;;;6225776;22;19907;-88
2022/04/01 03:00:08;;;;;;;;;;;1.70;99.90;;;;;;6211553;22;20002;-89
2022/04/01 03:02:48;;;;;;;;;;;1.60;99.90;;;;;;6228841;22;19976;-89
2022/04/01 03:05:21;;;;;;;;;;;1.70;99.90;;;;;;6251865;22;19908;-91
2022/04/01 03:08:01;;;;;;;;;;;1.70;99.90;;;;;;6251122;22;19911;-88
2022/04/01 03:10:43;;;;;;;;;;;1.70;99.90;;;;;;6228678;22;20340;-89
2022/04/01 03:13:09;;;;;;;;;;;1.70;99.90;;;;;;6251392;22;19904;-88
2022/04/01 03:15:47;;;;;;;;;;;1.70;99.90;;;;;;6252963;22;20176;-90
2022/04/01 03:18:24;;;;;;;;;;;1.70;99.90;;;;;;6255737;22;19891;-88
2022/04/01 03:21:04;;;;;;;;;;;1.80;99.90;;;;;;6256181;22;19939;-89
2022/04/01 03:23:32;;;;;;;;;;;1.70;99.80;;;;;;6278375;22;19891;-89
2022/04/01 03:26:16;;;;;;;;;;;;;;;;;;;;;
2022/04/01 03:31:56;;;;;;;;;;;1.70;99.80;;;;;;6235262;22;19904;-88
2022/04/01 03:34:24;;;;;;;;;;;1.70;99.80;;;;;;6251127;22;19903;-89
2022/04/01 03:36:59;;;;;;;;;;;1.70;99.80;;;;;;6249447;22;19903;-89
2022/04/01 03:39:30;;;;;;;;;;;1.60;99.70;;;;;;6248250;22;19916;-89
2022/04/01 03:42:06;;;;;;;;;;;1.60;99.80;;;;;;6250324;22;19911;-88
2022/04/01 03:44:39;;;;;;;;;;;1.60;99.70;;;;;;6251520;22;20332;-88
2022/04/01 03:47:10;;;;;;;;;;;1.70;99.80;;;;;;6278142;22;20400;-88
2022/04/01 03:49:42;;;;;;;;;;;1.60;99.70;;;;;;6250714;22;19950;-89
2022/04/01 03:52:13;;;;;;;;;;;1.60;99.80;;;;;;6248276;22;19957;-89
2022/04/01 03:54:59;;;;;;;;;;;;;;;;;;;;;
2022/04/01 03:57:40;;;;;;;;;;;1.50;99.80;;;;;;6277838;22;19982;-88
2022/04/01 04:00:18;;;;;;;;;;;1.50;99.90;;;;;;6250220;22;19945;-88
2022/04/01 04:02:46;;;;;;;;;;;1.50;99.90;;;;;;6250677;22;19957;-88
2022/04/01 04:05:21;;;;;;;;;;;1.50;99.80;;;;;;6226302;22;19945;-88
2022/04/01 04:07:53;;;;;;;;;;;1.50;99.80;;;;;;6250785;22;19904;-87
2022/04/01 04:10:34;;;;;;;;;;;1.50;99.80;;;;;;6250517;22;19907;-88
2022/04/01 04:13:00;;;;;;;;;;;1.50;99.70;;;;;;6226975;22;19907;-88
2022/04/01 04:15:41;;;;;;;;;;;1.50;99.80;;;;;;6250933;22;19915;-88
2022/04/01 04:21:38;;;;;;;;;;;1.40;99.70;;;;;;6247593;22;19911;-88
2022/04/01 04:24:15;;;;;;;;;;;1.40;99.80;;;;;;6250519;22;19904;-88
2022/04/01 04:26:48;;;;;;;;;;;1.50;99.80;;;;;;6251611;22;20310;-87
2022/04/01 04:29:16;;;;;;;;;;;1.50;99.60;;;;;;6254311;22;20045;-88
2022/04/01 04:32:08;;;;;;;;;;;1.40;99.40;;;;;;6259005;22;19911;-89
2022/04/01 04:34:42;;;;;;;;;;;1.40;99.50;;;;;;6267086;22;19917;-88
2022/04/01 04:37:48;;;;;;;;;;;;;;;;;;;;;
2022/04/01 04:40:29;;;;;;;;;;;;;;;;;;;;;
2022/04/01 04:43:07;;;;;;;;;;;1.40;99.50;;;;;;6286042;22;19957;-88
2022/04/01 04:45:40;;;;;;;;;;;1.50;99.40;;;;;;6251579;22;19903;-89
2022/04/01 04:48:33;;;;;;;;;;;1.50;99.40;;;;;;6251186;22;20245;-89
2022/04/01 04:51:05;;;;;;;;;;;1.60;99.20;;;;;;6251011;22;19903;-89
2022/04/01 04:53:45;;;;;;;;;;;1.60;99.20;;;;;;6226422;22;19907;-90
2022/04/01 04:56:21;;;;;;;;;;;1.60;99.00;;;;;;6253388;22;19942;-89
2022/04/01 04:59:20;;;;;;;;;;;1.50;99.00;;;;;;6228330;22;19943;-88
2022/04/01 05:01:59;;;;;;;;;;;1.60;99.10;;;;;;6216686;22;20248;-88
2022/04/01 05:04:41;;;;;;;;;;;;;;;;;;;;;
2022/04/01 05:07:25;;;;;;;;;;;1.50;99.00;;;;;;6280440;22;19986;-88
2022/04/01 05:10:18;;;;;;;;;;;1.60;99.00;;;;;;6253124;22;19951;-89
2022/04/01 05:12:58;;;;;;;;;;;;;;;;;;;;;
2022/04/01 05:15:38;;;;;;;;;;;;;;;;;;;;;
2022/04/01 05:18:19;;;;;;;;;;;1.50;98.70;;;;;;6279362;22;19990;-89
2022/04/01 05:21:01;;;;;;;;;;;1.50;98.70;;;;;;6252244;22;19903;-90
2022/04/01 05:23:53;;;;;;;;;;;1.60;98.80;;;;;;6252138;22;19982;-90
2022/04/01 05:26:44;;;;;;;;;;;1.60;98.80;;;;;;6252979;22;19911;-90
2022/04/01 05:29:31;;;;;;;;;;;1.70;98.70;;;;;;6252645;22;19931;-89
2022/04/01 05:32:28;;;;;;;;;;;1.70;98.40;;;;;;6227690;22;19911;-89
2022/04/01 05:34:57;;;;;;;;;;;1.60;98.20;;;;;;6220992;22;19958;-89
2022/04/01 05:37:56;;;;;;;;;;;;;;;;;;;;;
2022/04/01 05:40:24;;;;;;;;;;;1.60;98.30;;;;;;6279120;22;19999;-89
2022/04/01 05:43:13;;;;;;;;;;;1.60;98.40;;;;;;6225588;22;19994;-89
2022/04/01 05:45:50;;;;;;;;;;;;;;;;;;;;;
2022/04/01 05:54:12;;;;;;;;;;;1.50;98.30;;;;;;6275399;22;19918;-89
2022/04/01 05:57:11;;;;;;;;;;;1.50;98.30;;;;;;6253025;22;19892;-88
2022/04/01 05:59:50;;;;;;;;;;;1.50;98.30;;;;;;6269288;22;19894;-89
2022/04/01 06:02:35;;;;;;;;;;;;;;;;;;;;;
2022/04/01 06:05:29;;;;;;;;;;;;;;;;;;;;;
2022/04/01 06:08:11;;;;;;;;;;;1.40;98.10;;;;;;6277741;22;19990;-91
2022/04/01 06:11:02;;;;;;;;;;;;;;;;;;;;;
2022/04/01 06:13:50;;;;;;;;;;;1.40;98.40;;;;;;6278907;22;19994;-91
2022/04/01 06:16:45;;;;;;;;;;;;;;;;;;;;;
2022/04/01 06:19:41;;;;;;;;;;;1.40;98.50;;;;;;6279092;22;19982;-91
2022/04/01 06:22:35;;;;;;;;;;;;;;;;;;;;;
2022/04/01 06:28:23;;;;;;;;;;;;;;;;;;;;;
2022/04/01 06:34:26;;;;;;;;;;;;;;;;;;;;;
2022/04/01 06:37:34;;;;;;;;;;;1.70;98.30;;;;;;6279155;22;19994;-90
2022/04/01 06:40:19;;;;;;;;;;;1.60;98.20;;;;;;6250238;22;19950;-90
2022/04/01 06:43:14;;;;;;;;;;;1.60;98.20;;;;;;6251028;22;19904;-90
2022/04/01 06:46:02;;;;;;;;;;;1.60;98.20;;;;;;6252049;22;20313;-90
2022/04/01 06:54:46;;;;;;;;;;;1.60;98.20;;;;;;6192465;23;19986;-90
2022/04/01 06:57:24;;;;;;;;;;;1.60;98.30;;;;;;6256928;22;19934;-90
2022/04/01 07:03:26;;;;;;;;;;;;;;;;;;;;;
2022/04/01 07:06:05;;;;;;;;;;;;;;;;;;;;;
2022/04/01 07:14:23;;;;;;;;;;;1.70;98.30;;;;;;6261779;22;19951;-88
2022/04/01 07:19:47;;;;;;;;;;;1.80;98.30;;;;;;6285947;22;19887;-88
2022/04/01 07:22:43;;;;;;;;;;;1.80;98.30;;;;;;6253085;22;19910;-90
2022/04/01 07:28:29;;;;;;;;;;;;;;;;;;;;;
2022/04/01 07:32:29;;;;;;;;;;;1.80;98.20;;;;;;6278313;22;20273;-92
2022/04/01 07:33:49;;;;;;;;;;;1.90;98.20;;;;;;6240904;22;19911;-91
2022/04/01 07:36:41;;;;;;;;;;;1.90;98.20;;;;;;6225375;22;19915;-90
2022/04/01 07:39:25;;;;;;;;;;;;;;;;;;;;;
2022/04/01 07:41:58;;;;;;;;;;;2.00;98.00;;;;;;6253718;22;19994;-92
2022/04/01 07:44:35;;;;;;;;;;;1.90;97.90;;;;;;6227090;22;19912;-91
2022/04/01 07:47:22;;;;;;;;;;;1.90;98.00;;;;;;6251648;22;20762;-90
2022/04/01 07:50:25;;;;;;;;;;;1.90;97.90;;;;;;6251655;22;20340;-90
2022/04/01 07:55:59;;;;;;;;;;;1.90;98.00;;;;;;6231472;22;19915;-91
2022/04/01 07:58:38;;;;;;;;;;;2.00;98.10;;;;;;6226574;22;20318;-92
2022/04/01 08:01:12;;;;;;;;;;;2.00;98.00;;;;;;6227842;22;19911;-92
2022/04/01 08:04:06;;;;;;;;;;;2.00;97.90;;;;;;6251172;22;19903;-90
2022/04/01 08:07:00;;;;;;;;;;;2.00;97.80;;;;;;6251508;22;19911;-92
2022/04/01 08:09:37;;;;;;;;;;;2.10;97.90;;;;;;6251986;22;19904;-92
2022/04/01 08:12:34;;;;;;;;;;;2.00;97.60;;;;;;6249474;22;20369;-93
2022/04/01 08:17:55;;;;;;;;;;;2.20;97.50;;;;;;6278869;22;20221;-92
2022/04/01 08:27:03;;;;;;;;;;;;;;;;;;;;;
2022/04/01 08:29:59;;;;;;;;;;;;;;;;;;;;;
2022/04/01 08:35:36;;;;;;;;;;;2.50;95.90;;;;;;6239892;22;19907;-91
2022/04/01 08:38:31;;;;;;;;;;;2.60;95.80;;;;;;6279966;22;19899;-91
2022/04/01 08:41:20;;;;;;;;;;;;;;;;;;;;;
2022/04/01 08:47:08;;;;;;;;;;;;;;;;;;;;;
2022/04/01 08:49:39;;;;;;;;;;;2.50;94.80;;;;;;6269069;22;19974;-92
2022/04/01 08:52:10;;;;;;;;;;;2.50;94.90;;;;;;6253463;22;19985;-91
2022/04/01 08:55:03;;;;;;;;;;;2.60;95.10;;;;;;6253776;22;20071;-90
2022/04/01 08:57:59;;;;;;;;;;;2.60;95.10;;;;;;6234696;22;19956;-93
2022/04/01 09:00:34;;;;;;;;;;;2.60;94.90;;;;;;6256773;22;20373;-91
2022/04/01 09:03:00;;;;;;;;;;;2.70;95.10;;;;;;6280817;22;19934;-91
2022/04/01 09:06:37;;;;;;;;;;;2.80;94.70;;;;;;6254606;22;19969;-90
2022/04/01 09:08:53;;;;;;;;;;;;;;;;;;;;;
2022/04/01 09:11:34;;;;;;;;;;;2.90;94.60;;;;;;6282766;22;19947;-91
2022/04/01 09:14:02;;;;;;;;;;;3.00;94.60;;;;;;6261632;22;19907;-89
2022/04/01 09:17:03;;;;;;;;;;;;;;;;;;;;;
2022/04/01 09:20:00;;;;;;;;;;;;;;;;;;;;;
2022/04/01 09:22:30;;;;;;;;;;;;;;;;;;;;;
2022/04/01 09:25:07;;;;;;;;;;;3.00;94.00;;;;;;6297143;22;19915;-91
2022/04/01 09:27:53;;;;;;;;;;;2.90;94.00;;;;;;6269933;22;19982;-91
2022/04/01 09:30:21;;;;;;;;;;;3.00;94.00;;;;;;6269852;22;19903;-89
2022/04/01 09:32:51;;;;;;;;;;;3.00;94.10;;;;;;6269523;22;19907;-88
2022/04/01 09:35:24;;;;;;;;;;;3.10;94.40;;;;;;6260886;22;19916;-88
2022/04/01 09:37:51;;;;;;;;;;;3.20;94.40;;;;;;6262572;22;19985;-88
2022/04/01 09:40:24;;;;;;;;;;;3.20;94.30;;;;;;6265238;22;19980;-91
2022/04/01 09:46:05;;;;;;;;;;;3.40;94.30;;;;;;6262797;22;19915;-91
2022/04/01 09:48:46;;;;;;;;;;;3.30;93.70;;;;;;6253733;22;19903;-88
2022/04/01 09:51:47;;;;;;;;;;;3.30;93.80;;;;;;6249755;22;19904;-87
2022/04/01 09:54:15;;;;;;;;;;;3.30;93.80;;;;;;6252603;22;19957;-87
2022/04/01 09:56:55;;;;;;;;;;;;;;;;;;;;;
2022/04/01 09:59:35;;;;;;;;;;;;;;;;;;;;;
2022/04/01 10:02:08;;;;;;;;;;;3.40;93.20;;;;;;6294670;22;19911;-88
2022/04/01 10:04:34;;;;;;;;;;;3.40;93.30;;;;;;6252687;22;19907;-88
2022/04/01 10:07:02;;;;;;;;;;;3.50;93.50;;;;;;6252892;22;19925;-88
2022/04/01 10:09:33;;;;;;;;;;;3.60;93.50;;;;;;6253369;22;19903;-88
2022/04/01 10:12:12;;;;;;;;;;;3.60;93.40;;;;;;6252236;22;19903;-88
2022/04/01 10:15:21;;;;;;;;;;;3.60;93.20;;;;;;6250844;22;19904;-88
2022/04/01 10:20:47;;;;;;;;;;;;;;;;;;;;;
2022/04/01 10:23:28;;;;;;;;;;;3.70;93.40;;;;;;6278070;22;19994;-92
2022/04/01 10:26:16;;;;;;;;;;;3.70;93.40;;;;;;6252398;22;19903;-89
2022/04/01 10:28:50;;;;;;;;;;;3.80;92.80;;;;;;6252159;22;19907;-88
2022/04/01 10:31:20;;;;;;;;;;;3.80;92.50;;;;;;6278851;22;19904;-89
2022/04/01 10:33:51;;;;;;;;;;;3.80;92.60;;;;;;6226721;22;19911;-89
2022/04/01 10:36:33;;;;;;;;;;;3.80;92.40;;;;;;6251490;22;19916;-88
2022/04/01 10:39:12;;;;;;;;;;;3.80;91.90;;;;;;6251885;22;19957;-89
2022/04/01 10:41:45;;;;;;;;;;;3.80;91.90;;;;;;6250974;22;19942;-88
2022/04/01 10:44:13;;;;;;;;;;;3.80;92.20;;;;;;6251414;22;19910;-87
2022/04/01 10:46:55;;;;;;;;;;;3.80;92.20;;;;;;6250936;22;19904;-88
2022/04/01 10:52:21;;;;;;;;;;;3.80;92.20;;;;;;6254826;22;19930;-88
2022/04/01 10:55:11;;;;;;;;;;;3.80;92.40;;;;;;6226552;22;19939;-87
2022/04/01 10:57:44;;;;;;;;;;;3.80;92.00;;;;;;6230725;22;19911;-87
2022/04/01 11:00:21;;;;;;;;;;;3.80;92.30;;;;;;6251093;22;19903;-87
2022/04/01 11:02:50;;;;;;;;;;;3.80;92.10;;;;;;6250248;22;19907;-88
2022/04/01 11:05:37;;;;;;;;;;;3.90;92.50;;;;;;6278366;22;19907;-89
2022/04/01 11:08:45;;;;;;;;;;;;;;;;;;;;;
2022/04/01 11:11:40;;;;;;;;;;;4.00;92.40;;;;;;6222980;22;19978;-90
2022/04/01 11:14:09;;;;;;;;;;;4.10;92.00;;;;;;6283007;22;19903;-89
2022/04/01 11:16:49;;;;;;;;;;;4.10;92.10;;;;;;6303501;22;19915;-88
2022/04/01 11:19:19;;;;;;;;;;;4.20;92.20;;;;;;6277445;22;19908;-89
2022/04/01 11:21:47;;;;;;;;;;;4.30;92.20;;;;;;6273673;22;19887;-89
2022/04/01 11:24:28;;;;;;;;;;;4.40;92.30;;;;;;6259296;22;19903;-88
2022/04/01 11:26:56;;;;;;;;;;;4.40;92.20;;;;;;6251142;22;19914;-89
2022/04/01 11:29:23;;;;;;;;;;;4.40;91.10;;;;;;6226018;22;19990;-88
2022/04/01 11:31:49;;;;;;;;;;;4.40;91.00;;;;;;6250423;22;20272;-88
2022/04/01 11:34:20;;;;;;;;;;;4.40;91.10;;;;;;6249336;22;20309;-88
2022/04/01 11:37:32;;;;;;;;;;;4.40;91.10;;;;;;6278710;22;19943;-91
2022/04/01 11:40:26;;;;;;;;;;;;;;;;;;;;;
2022/04/01 11:43:10;;;;;;;;;;;4.40;90.60;;;;;;6277835;22;19990;-90
2022/04/01 11:45:35;;;;;;;;;;;4.20;90.60;;;;;;6249583;22;19967;-87
2022/04/01 11:48:13;;;;;;;;;;;4.10;90.90;;;;;;6250387;22;19903;-86
2022/04/01 11:50:43;;;;;;;;;;;4.10;91.30;;;;;;6250824;22;19985;-86
2022/04/01 11:53:17;;;;;;;;;;;4.10;91.50;;;;;;6250223;22;19903;-86
2022/04/01 11:56:04;;;;;;;;;;;4.10;91.60;;;;;;6250377;22;19911;-87
2022/04/01 11:58:49;;;;;;;;;;;4.00;91.70;;;;;;6249333;22;19903;-86
2022/04/01 12:01:26;;;;;;;;;;;4.00;91.80;;;;;;6277441;22;19904;-86
2022/04/01 12:04:03;;;;;;;;;;;4.10;91.30;;;;;;6250138;22;19911;-86
2022/04/01 12:09:21;;;;;;;;;;;4.10;91.00;;;;;;6277820;22;19910;-88
2022/04/01 12:12:01;;;;;;;;;;;4.20;90.80;;;;;;6251126;22;19994;-88
2022/04/01 12:14:47;;;;;;;;;;;;;;;;;;;;;
2022/04/01 12:17:26;;;;;;;;;;;;;;;;;;;;;
2022/04/01 12:20:10;;;;;;;;;;;4.40;90.90;;;;;;6277997;22;19994;-88
2022/04/01 12:22:41;;;;;;;;;;;4.50;91.00;;;;;;6225359;22;19915;-86
2022/04/01 12:25:07;;;;;;;;;;;4.40;90.50;;;;;;6250632;22;19907;-87
2022/04/01 12:27:35;;;;;;;;;;;4.40;90.80;;;;;;6224508;22;20281;-87
2022/04/01 12:30:03;;;;;;;;;;;4.40;90.80;;;;;;6250166;22;19985;-88
2022/04/01 12:32:29;;;;;;;;;;;4.40;90.80;;;;;;6251176;22;19907;-88
2022/04/01 12:34:54;;;;;;;;;;;4.40;90.60;;;;;;6251060;22;19975;-88
2022/04/01 12:37:22;;;;;;;;;;;4.40;90.50;;;;;;6256499;22;20277;-87
2022/04/01 12:39:58;;;;;;;;;;;4.40;90.40;;;;;;6273042;22;19894;-85
2022/04/01 12:42:24;;;;;;;;;;;4.40;90.30;;;;;;6265101;22;19915;-87
2022/04/01 12:45:02;;;;;;;;;;;4.50;90.40;;;;;;6255144;22;19909;-86
2022/04/01 12:47:35;;;;;;;;;;;4.60;90.30;;;;;;6252396;22;19903;-87
2022/04/01 12:50:00;;;;;;;;;;;4.60;89.50;;;;;;6277220;22;19986;-87
2022/04/01 12:52:27;;;;;;;;;;;4.60;89.20;;;;;;6249966;22;19914;-86
2022/04/01 12:54:54;;;;;;;;;;;4.50;89.60;;;;;;6250098;22;19918;-87
2022/04/01 12:57:35;;;;;;;;;;;4.50;89.00;;;;;;6249484;22;19911;-87
2022/04/01 13:00:01;;;;;;;;;;;4.60;90.00;;;;;;6227366;22;19911;-87
2022/04/01 13:02:31;;;;;;;;;;;4.60;89.00;;;;;;6224776;22;19912;-87
2022/04/01 13:05:06;;;;;;;;;;;4.60;89.00;;;;;;6250165;22;20130;-87
2022/04/01 13:07:41;;;;;;;;;;;4.60;89.40;;;;;;6249309;22;19909;-88
2022/04/01 13:10:20;;;;;;;;;;;4.70;89.00;;;;;;6250140;22;20230;-88
2022/04/01 13:16:07;;;;;;;;;;;4.70;88.00;;;;;;6251724;22;19911;-88
2022/04/01 13:18:40;;;;;;;;;;;4.80;87.30;;;;;;6251117;22;20215;-87
2022/04/01 13:21:06;;;;;;;;;;;4.80;87.40;;;;;;6251895;22;19911;-88
2022/04/01 13:23:36;;;;;;;;;;;4.80;87.50;;;;;;6251937;22;19926;-88
2022/04/01 13:26:05;;;;;;;;;;;4.80;86.40;;;;;;6252272;22;19904;-88
2022/04/01 13:28:41;;;;;;;;;;;;;;;;;;;;;
2022/04/01 13:31:06;;;;;;;;;;;4.90;87.50;;;;;;6279022;22;19994;-86
2022/04/01 13:33:37;;;;;;;;;;;5.00;87.90;;;;;;6251117;22;19942;-89
2022/04/01 13:36:13;;;;;;;;;;;5.00;87.30;;;;;;6252469;22;20237;-87
2022/04/01 13:38:41;;;;;;;;;;;5.00;86.90;;;;;;6251720;22;19904;-87
2022/04/01 13:41:10;;;;;;;;;;;5.10;86.10;;;;;;6251295;22;19994;-88
2022/04/01 13:43:35;;;;;;;;;;;5.00;84.30;;;;;;6251835;22;19907;-87
2022/04/01 13:46:03;;;;;;;;;;;4.90;84.20;;;;;;6251555;22;20318;-87
2022/04/01 13:48:35;;;;;;;;;;;4.90;84.80;;;;;;6227231;22;20309;-88
2022/04/01 13:51:05;;;;;;;;;;;4.90;85.30;;;;;;6253360;22;19938;-87
2022/04/01 13:53:33;;;;;;;;;;;4.90;85.00;;;;;;6228113;22;19907;-87
2022/04/01 13:56:05;;;;;;;;;;;4.90;84.50;;;;;;6253619;22;20317;-88
2022/04/01 13:58:30;;;;;;;;;;;4.90;85.20;;;;;;6281101;22;19978;-87
2022/04/01 14:00:56;;;;;;;;;;;4.80;84.70;;;;;;6230226;22;19957;-88
2022/04/01 14:03:22;;;;;;;;;;;4.80;85.20;;;;;;6269807;22;19907;-88
2022/04/01 14:05:53;;;;;;;;;;;4.80;85.80;;;;;;6279519;22;19907;-87
2022/04/01 14:08:21;;;;;;;;;;;5.00;86.20;;;;;;6278645;22;19898;-87
2022/04/01 14:10:53;;;;;;;;;;;5.00;86.70;;;;;;6274939;22;19913;-87
2022/04/01 14:13:19;;;;;;;;;;;5.10;86.80;;;;;;6253737;22;20225;-87
2022/04/01 14:15:47;;;;;;;;;;;5.20;87.10;;;;;;6253914;22;19912;-87
2022/04/01 14:18:15;;;;;;;;;;;5.20;85.50;;;;;;6252521;22;19911;-86
2022/04/01 14:20:44;;;;;;;;;;;5.20;85.70;;;;;;6252876;22;19954;-86
2022/04/01 14:23:13;;;;;;;;;;;5.10;84.50;;;;;;6252231;22;19903;-87
2022/04/01 14:25:44;;;;;;;;;;;5.10;84.80;;;;;;6252172;22;19911;-87
2022/04/01 14:28:12;;;;;;;;;;;5.10;84.90;;;;;;6252460;22;19978;-87
2022/04/01 14:30:41;;;;;;;;;;;5.20;83.90;;;;;;6252038;22;19985;-87
2022/04/01 14:33:17;;;;;;;;;;;;;;;;;;;;;
2022/04/01 14:38:45;;;;;;;;;;;5.20;83.50;;;;;;6210455;22;19910;-90
2022/04/01 14:41:33;;;;;;;;;;;5.20;81.80;;;;;;6251734;22;19994;-89
2022/04/01 14:44:12;;;;;;;;;;;5.10;82.10;;;;;;6218076;22;19908;-92
2022/04/01 14:46:52;;;;;;;;;;;5.20;82.80;;;;;;6250340;22;19935;-88
2022/04/01 14:49:41;;;;;;;;;;;5.20;83.40;;;;;;6251430;22;19935;-87
2022/04/01 14:52:06;;;;;;;;;;;5.30;82.60;;;;;;6277181;22;20249;-89
2022/04/01 14:54:35;;;;;;;;;;;5.20;82.60;;;;;;6250035;22;20270;-88
2022/04/01 14:57:14;;;;;;;;;;;5.20;83.20;;;;;;6250532;22;20310;-87
2022/04/01 15:00:03;;;;;;;;;;;;;;;;;;;;;
2022/04/01 15:02:39;;;;;;;;;;;5.10;84.40;;;;;;6253711;22;19986;-89
2022/04/01 15:05:08;;;;;;;;;;;5.10;85.20;;;;;;6251351;22;19903;-89
2022/04/01 15:07:33;;;;;;;;;;;5.10;85.50;;;;;;6249726;22;19904;-90
2022/04/01 15:10:15;;;;;;;;;;;4.90;85.80;;;;;;6251538;22;19903;-89
2022/04/01 15:12:48;;;;;;;;;;;5.00;86.50;;;;;;6251385;22;19903;-89
2022/04/01 15:15:32;;;;;;;;;;;;;;;;;;;;;
2022/04/01 15:18:21;;;;;;;;;;;4.90;87.90;;;;;;6253725;22;19982;-88
2022/04/01 15:20:51;;;;;;;;;;;4.80;88.20;;;;;;6278152;22;19953;-88
2022/04/01 15:23:30;;;;;;;;;;;4.80;88.20;;;;;;6252360;22;19911;-90
2022/04/01 15:26:25;;;;;;;;;;;;;;;;;;;;;
2022/04/01 15:29:02;;;;;;;;;;;;;;;;;;;;;
2022/04/01 15:31:30;;;;;;;;;;;4.70;88.20;;;;;;6280514;22;19915;-90
2022/04/01 15:33:58;;;;;;;;;;;4.50;88.30;;;;;;6276600;22;19914;-87
2022/04/01 15:36:25;;;;;;;;;;;4.50;89.00;;;;;;6255593;22;19934;-87
2022/04/01 15:39:02;;;;;;;;;;;4.50;89.40;;;;;;6250063;22;19907;-88
2022/04/01 15:41:30;;;;;;;;;;;4.50;89.90;;;;;;6277184;22;19965;-88
2022/04/01 15:44:04;;;;;;;;;;;4.60;89.50;;;;;;6277557;22;19907;-88
2022/04/01 15:46:41;;;;;;;;;;;4.50;89.10;;;;;;6250705;22;19914;-88
2022/04/01 15:49:08;;;;;;;;;;;4.40;89.30;;;;;;6249650;22;19903;-89
2022/04/01 15:51:37;;;;;;;;;;;4.40;89.50;;;;;;6250592;22;19998;-87
2022/04/01 15:54:18;;;;;;;;;;;4.40;90.00;;;;;;6250961;22;19903;-88
2022/04/01 15:56:54;;;;;;;;;;;;;;;;;;;;;
2022/04/01 15:59:20;;;;;;;;;;;4.40;90.10;;;;;;6277477;22;19982;-88
2022/04/01 16:02:22;;;;;;;;;;;4.40;90.40;;;;;;6249929;22;19910;-90
2022/04/01 16:04:52;;;;;;;;;;;4.40;90.50;;;;;;6250150;22;19909;-88
2022/04/01 16:07:23;;;;;;;;;;;4.40;90.70;;;;;;6251052;22;19903;-89
2022/04/01 16:10:24;;;;;;;;;;;4.40;90.80;;;;;;6250508;22;20229;-89
2022/04/01 16:13:21;;;;;;;;;;;4.40;91.00;;;;;;6099353;23;20015;-88
2022/04/01 16:15:46;;;;;;;;;;;4.50;91.00;;;;;;6122743;23;19953;-90
2022/04/01 16:18:15;;;;;;;;;;;4.50;91.30;;;;;;6075858;23;20271;-88
2022/04/01 16:20:41;;;;;;;;;;;4.50;91.30;;;;;;6075736;23;20280;-87
2022/04/01 16:23:15;;;;;;;;;;;4.50;91.40;;;;;;6129966;23;19996;-88
2022/04/01 16:25:46;;;;;;;;;;;4.40;91.40;;;;;;6245298;22;19904;-87
2022/04/01 16:28:15;;;;;;;;;;;4.40;91.50;;;;;;6250605;22;19949;-87
2022/04/01 16:30:41;;;;;;;;;;;4.40;91.50;;;;;;6250253;22;19903;-88
2022/04/01 16:33:11;;;;;;;;;;;4.50;91.50;;;;;;6250264;22;20728;-87
2022/04/01 16:35:39;;;;;;;;;;;4.60;91.60;;;;;;6249714;22;19949;-88
2022/04/01 16:38:20;;;;;;;;;;;4.60;91.50;;;;;;6250522;22;19930;-88
2022/04/01 16:40:46;;;;;;;;;;;4.50;91.60;;;;;;6249915;22;19914;-88
2022/04/01 16:43:19;;;;;;;;;;;4.50;91.60;;;;;;6249996;22;19908;-88
2022/04/01 16:45:51;;;;;;;;;;;4.50;91.70;;;;;;6250639;22;19917;-88
2022/04/01 16:48:17;;;;;;;;;;;4.40;91.80;;;;;;6251526;22;20274;-87
2022/04/01 16:50:44;;;;;;;;;;;4.40;92.00;;;;;;6260501;22;20174;-88
2022/04/01 16:53:10;;;;;;;;;;;4.40;92.30;;;;;;6279962;22;19955;-88
2022/04/01 16:55:49;;;;;;;;;;;4.30;92.30;;;;;;6280542;22;19896;-89
2022/04/01 16:58:24;;;;;;;;;;;4.30;92.60;;;;;;6279859;22;19895;-87
2022/04/01 17:00:55;;;;;;;;;;;4.30;92.70;;;;;;6233429;22;19981;-87
2022/04/01 17:03:24;;;;;;;;;;;4.30;92.80;;;;;;6252683;22;19903;-87
2022/04/01 17:14:11;;;;;;;;;;;4.60;92.60;;;;;;6278919;22;19969;-87
2022/04/01 17:16:40;;;;;;;;;;;4.60;92.60;;;;;;6253728;22;19934;-89
2022/04/01 17:19:18;;;;;;;;;;;4.60;92.30;;;;;;6284898;22;19929;-88
2022/04/01 17:21:44;;;;;;;;;;;4.60;91.80;;;;;;6258230;22;19911;-89
2022/04/01 17:24:13;;;;;;;;;;;4.60;91.60;;;;;;6284138;22;19904;-87
2022/04/01 17:26:41;;;;;;;;;;;4.60;91.50;;;;;;6257362;22;19929;-89
2022/04/01 17:29:12;;;;;;;;;;;4.50;91.50;;;;;;6257415;22;19939;-86
2022/04/01 17:34:40;;;;;;;;;;;4.50;91.60;;;;;;6220784;22;19904;-87
2022/04/01 17:37:11;;;;;;;;;;;4.50;91.50;;;;;;6257642;22;19918;-88
2022/04/01 17:39:39;;;;;;;;;;;4.50;91.60;;;;;;6284135;22;19937;-87
2022/04/01 17:42:13;;;;;;;;;;;4.50;91.70;;;;;;6257498;22;20345;-89
2022/04/01 17:44:42;;;;;;;;;;;4.50;91.70;;;;;;6285387;22;20237;-89
2022/04/01 17:47:09;;;;;;;;;;;4.50;91.50;;;;;;6257536;22;19907;-89
2022/04/01 17:49:35;;;;;;;;;;;4.50;91.40;;;;;;6257174;22;19925;-88
2022/04/01 17:52:05;;;;;;;;;;;4.50;91.10;;;;;;6256685;22;19986;-87
2022/04/01 17:54:36;;;;;;;;;;;4.50;90.80;;;;;;6256537;22;19942;-88
2022/04/01 17:57:07;;;;;;;;;;;4.50;90.90;;;;;;6257063;22;19930;-87
2022/04/01 17:59:36;;;;;;;;;;;4.60;90.60;;;;;;6255710;22;19908;-89
2022/04/01 18:02:34;;;;;;;;;;;4.60;90.40;;;;;;6255604;22;20324;-90
2022/04/01 18:05:06;;;;;;;;;;;4.60;90.10;;;;;;6282290;22;20259;-88
2022/04/01 18:07:37;;;;;;;;;;;4.70;90.10;;;;;;6256267;22;19911;-88
2022/04/01 18:10:06;;;;;;;;;;;4.70;87.90;;;;;;6257025;22;19903;-88
2022/04/01 18:12:35;;;;;;;;;;;4.60;87.20;;;;;;6255769;22;20284;-88
2022/04/01 18:15:05;;;;;;;;;;;4.60;86.00;;;;;;6260651;22;19918;-88